sensor_id;sensor_type;location;lat;lon;timestamp;temperature;humidity
80132;SHT30;69442;51.442;10.564;2023-11-21T00:01:57;7.04;79.47
80132;SHT30;69442;51.442;10.564;2023-11-21T00:04:23;6.97;79.84
80132;SHT30;69442;51.442;10.564;2023-11-21T00:06:49;7.04;79.37
80132;SHT30;69442;51.442;10.564;2023-11-21T00:09:14;6.99;79.59
80132;SHT30;69442;51.442;10.564;2023-11-21T00:11:44;6.97;79.71
80132;SHT30;69442;51.442;10.564;2023-11-21T00:14:11;6.95;79.68
80132;SHT30;69442;51.442;10.564;2023-11-21T00:16:36;6.95;79.38
80132;SHT30;69442;51.442;10.564;2023-11-21T00:19:02;6.92;79.53
80132;SHT30;69442;51.442;10.564;2023-11-21T00:21:27;6.91;79.93
80132;SHT30;69442;51.442;10.564;2023-11-21T00:23:52;6.90;79.94
80132;SHT30;69442;51.442;10.564;2023-11-21T00:26:18;6.85;79.93
80132;SHT30;69442;51.442;10.564;2023-11-21T00:28:43;6.80;80.02
80132;SHT30;69442;51.442;10.564;2023-11-21T00:31:09;6.84;79.64
80132;SHT30;69442;51.442;10.564;2023-11-21T00:33:34;6.79;80.55
80132;SHT30;69442;51.442;10.564;2023-11-21T00:35:59;6.74;79.82
80132;SHT30;69442;51.442;10.564;2023-11-21T00:38:26;6.74;79.69
80132;SHT30;69442;51.442;10.564;2023-11-21T00:40:52;6.74;79.86
80132;SHT30;69442;51.442;10.564;2023-11-21T00:43:21;6.72;79.80
80132;SHT30;69442;51.442;10.564;2023-11-21T00:45:46;6.69;79.90
80132;SHT30;69442;51.442;10.564;2023-11-21T00:48:14;6.63;80.47
80132;SHT30;69442;51.442;10.564;2023-11-21T00:50:40;6.66;79.69
80132;SHT30;69442;51.442;10.564;2023-11-21T00:53:05;6.66;79.55
80132;SHT30;69442;51.442;10.564;2023-11-21T00:55:32;6.63;79.87
80132;SHT30;69442;51.442;10.564;2023-11-21T00:57:58;6.58;79.87
80132;SHT30;69442;51.442;10.564;2023-11-21T01:00:23;6.57;79.54
80132;SHT30;69442;51.442;10.564;2023-11-21T01:02:49;6.54;79.66
80132;SHT30;69442;51.442;10.564;2023-11-21T01:05:14;6.50;79.96
80132;SHT30;69442;51.442;10.564;2023-11-21T01:07:40;6.45;79.98
80132;SHT30;69442;51.442;10.564;2023-11-21T01:10:05;6.46;79.69
80132;SHT30;69442;51.442;10.564;2023-11-21T01:12:34;6.47;79.32
80132;SHT30;69442;51.442;10.564;2023-11-21T01:15:00;6.47;79.24
80132;SHT30;69442;51.442;10.564;2023-11-21T01:17:26;6.47;79.36
80132;SHT30;69442;51.442;10.564;2023-11-21T01:19:52;6.43;79.54
80132;SHT30;69442;51.442;10.564;2023-11-21T01:22:17;6.42;79.78
80132;SHT30;69442;51.442;10.564;2023-11-21T01:24:45;6.35;80.43
80132;SHT30;69442;51.442;10.564;2023-11-21T01:27:10;6.32;79.91
80132;SHT30;69442;51.442;10.564;2023-11-21T01:29:36;6.26;80.07
80132;SHT30;69442;51.442;10.564;2023-11-21T01:32:02;6.25;79.99
80132;SHT30;69442;51.442;10.564;2023-11-21T01:34:29;6.19;80.32
80132;SHT30;69442;51.442;10.564;2023-11-21T01:36:54;6.08;80.66
80132;SHT30;69442;51.442;10.564;2023-11-21T01:39:19;6.15;80.18
80132;SHT30;69442;51.442;10.564;2023-11-21T01:41:52;6.14;80.12
80132;SHT30;69442;51.442;10.564;2023-11-21T01:44:17;6.15;80.20
80132;SHT30;69442;51.442;10.564;2023-11-21T01:46:45;6.08;80.38
80132;SHT30;69442;51.442;10.564;2023-11-21T01:49:12;6.12;79.91
80132;SHT30;69442;51.442;10.564;2023-11-21T01:51:39;6.21;79.48
80132;SHT30;69442;51.442;10.564;2023-11-21T01:54:06;6.24;79.45
80132;SHT30;69442;51.442;10.564;2023-11-21T01:56:31;6.22;79.49
80132;SHT30;69442;51.442;10.564;2023-11-21T01:58:57;6.18;79.83
80132;SHT30;69442;51.442;10.564;2023-11-21T02:01:24;6.18;79.83
80132;SHT30;69442;51.442;10.564;2023-11-21T02:03:51;6.17;79.74
80132;SHT30;69442;51.442;10.564;2023-11-21T02:06:16;6.22;79.44
80132;SHT30;69442;51.442;10.564;2023-11-21T02:08:41;6.24;79.31
80132;SHT30;69442;51.442;10.564;2023-11-21T02:11:09;6.25;79.27
80132;SHT30;69442;51.442;10.564;2023-11-21T02:13:37;6.25;79.18
80132;SHT30;69442;51.442;10.564;2023-11-21T02:16:03;6.26;79.20
80132;SHT30;69442;51.442;10.564;2023-11-21T02:18:30;6.25;79.22
80132;SHT30;69442;51.442;10.564;2023-11-21T02:20:56;6.28;79.02
80132;SHT30;69442;51.442;10.564;2023-11-21T02:23:21;6.29;78.97
80132;SHT30;69442;51.442;10.564;2023-11-21T02:25:48;6.28;79.03
80132;SHT30;69442;51.442;10.564;2023-11-21T02:28:14;6.26;79.18
80132;SHT30;69442;51.442;10.564;2023-11-21T02:30:41;6.28;79.34
80132;SHT30;69442;51.442;10.564;2023-11-21T02:33:07;6.25;79.41
80132;SHT30;69442;51.442;10.564;2023-11-21T02:35:33;6.26;79.78
80132;SHT30;69442;51.442;10.564;2023-11-21T02:37:58;6.25;79.34
80132;SHT30;69442;51.442;10.564;2023-11-21T02:40:23;6.28;79.14
80132;SHT30;69442;51.442;10.564;2023-11-21T02:42:50;6.22;80.11
80132;SHT30;69442;51.442;10.564;2023-11-21T02:45:20;6.22;79.33
80132;SHT30;69442;51.442;10.564;2023-11-21T02:47:49;6.26;79.12
80132;SHT30;69442;51.442;10.564;2023-11-21T02:50:14;6.26;79.42
80132;SHT30;69442;51.442;10.564;2023-11-21T02:52:40;6.24;79.49
80132;SHT30;69442;51.442;10.564;2023-11-21T02:55:06;6.26;79.65
80132;SHT30;69442;51.442;10.564;2023-11-21T02:57:32;6.25;80.06
80132;SHT30;69442;51.442;10.564;2023-11-21T02:59:59;6.22;80.26
80132;SHT30;69442;51.442;10.564;2023-11-21T03:02:25;6.19;81.47
80132;SHT30;69442;51.442;10.564;2023-11-21T03:04:50;6.17;81.52
80132;SHT30;69442;51.442;10.564;2023-11-21T03:07:16;6.14;82.53
80132;SHT30;69442;51.442;10.564;2023-11-21T03:09:42;6.10;81.91
80132;SHT30;69442;51.442;10.564;2023-11-21T03:12:09;6.12;81.25
80132;SHT30;69442;51.442;10.564;2023-11-21T03:14:34;6.12;80.83
80132;SHT30;69442;51.442;10.564;2023-11-21T03:17:00;6.11;80.95
80132;SHT30;69442;51.442;10.564;2023-11-21T03:19:25;6.11;81.04
80132;SHT30;69442;51.442;10.564;2023-11-21T03:21:51;6.12;80.37
80132;SHT30;69442;51.442;10.564;2023-11-21T03:24:18;6.10;80.48
80132;SHT30;69442;51.442;10.564;2023-11-21T03:26:45;6.14;81.50
80132;SHT30;69442;51.442;10.564;2023-11-21T03:29:12;6.10;80.41
80132;SHT30;69442;51.442;10.564;2023-11-21T03:31:37;6.11;81.43
80132;SHT30;69442;51.442;10.564;2023-11-21T03:34:02;6.10;82.09
80132;SHT30;69442;51.442;10.564;2023-11-21T03:36:28;6.08;82.53
80132;SHT30;69442;51.442;10.564;2023-11-21T03:38:54;6.07;82.74
80132;SHT30;69442;51.442;10.564;2023-11-21T03:41:20;6.07;82.84
80132;SHT30;69442;51.442;10.564;2023-11-21T03:43:46;6.02;82.50
80132;SHT30;69442;51.442;10.564;2023-11-21T03:46:11;6.04;82.41
80132;SHT30;69442;51.442;10.564;2023-11-21T03:48:38;6.04;80.96
80132;SHT30;69442;51.442;10.564;2023-11-21T03:51:03;6.05;80.94
80132;SHT30;69442;51.442;10.564;2023-11-21T03:53:28;6.05;81.33
80132;SHT30;69442;51.442;10.564;2023-11-21T03:55:54;6.07;81.34
80132;SHT30;69442;51.442;10.564;2023-11-21T03:58:19;6.02;81.00
80132;SHT30;69442;51.442;10.564;2023-11-21T04:00:46;6.00;82.55
80132;SHT30;69442;51.442;10.564;2023-11-21T04:03:12;5.91;83.60
80132;SHT30;69442;51.442;10.564;2023-11-21T04:05:38;5.90;83.16
80132;SHT30;69442;51.442;10.564;2023-11-21T04:08:04;5.84;82.87
80132;SHT30;69442;51.442;10.564;2023-11-21T04:10:29;5.86;83.12
80132;SHT30;69442;51.442;10.564;2023-11-21T04:12:55;5.80;82.92
80132;SHT30;69442;51.442;10.564;2023-11-21T04:15:20;5.80;82.25
80132;SHT30;69442;51.442;10.564;2023-11-21T04:17:45;5.78;81.48
80132;SHT30;69442;51.442;10.564;2023-11-21T04:20:11;5.81;81.23
80132;SHT30;69442;51.442;10.564;2023-11-21T04:22:41;5.81;81.33
80132;SHT30;69442;51.442;10.564;2023-11-21T04:25:09;5.81;81.00
80132;SHT30;69442;51.442;10.564;2023-11-21T04:27:36;5.78;80.87
80132;SHT30;69442;51.442;10.564;2023-11-21T04:30:01;5.84;80.49
80132;SHT30;69442;51.442;10.564;2023-11-21T04:32:27;5.81;80.59
80132;SHT30;69442;51.442;10.564;2023-11-21T04:34:52;5.81;81.91
80132;SHT30;69442;51.442;10.564;2023-11-21T04:37:18;5.76;82.33
80132;SHT30;69442;51.442;10.564;2023-11-21T04:39:43;5.69;83.42
80132;SHT30;69442;51.442;10.564;2023-11-21T04:42:08;5.66;82.08
80132;SHT30;69442;51.442;10.564;2023-11-21T04:44:34;5.63;82.31
80132;SHT30;69442;51.442;10.564;2023-11-21T04:46:59;5.63;82.20
80132;SHT30;69442;51.442;10.564;2023-11-21T04:49:24;5.67;81.40
80132;SHT30;69442;51.442;10.564;2023-11-21T04:51:50;5.67;80.77
80132;SHT30;69442;51.442;10.564;2023-11-21T04:54:15;5.70;81.43
80132;SHT30;69442;51.442;10.564;2023-11-21T04:56:40;5.70;81.11
80132;SHT30;69442;51.442;10.564;2023-11-21T04:59:07;5.74;80.37
80132;SHT30;69442;51.442;10.564;2023-11-21T05:01:32;5.74;80.34
80132;SHT30;69442;51.442;10.564;2023-11-21T05:03:57;5.77;80.88
80132;SHT30;69442;51.442;10.564;2023-11-21T05:06:23;5.74;80.83
80132;SHT30;69442;51.442;10.564;2023-11-21T05:08:49;5.74;80.53
80132;SHT30;69442;51.442;10.564;2023-11-21T05:11:25;5.77;81.08
80132;SHT30;69442;51.442;10.564;2023-11-21T05:13:50;5.77;80.30
80132;SHT30;69442;51.442;10.564;2023-11-21T05:16:16;5.77;80.34
80132;SHT30;69442;51.442;10.564;2023-11-21T05:18:41;5.78;80.38
80132;SHT30;69442;51.442;10.564;2023-11-21T05:21:06;5.77;81.25
80132;SHT30;69442;51.442;10.564;2023-11-21T05:23:32;5.74;80.89
80132;SHT30;69442;51.442;10.564;2023-11-21T05:25:59;5.78;80.47
80132;SHT30;69442;51.442;10.564;2023-11-21T05:28:24;5.80;80.45
80132;SHT30;69442;51.442;10.564;2023-11-21T05:30:50;5.80;80.63
80132;SHT30;69442;51.442;10.564;2023-11-21T05:33:16;5.83;80.03
80132;SHT30;69442;51.442;10.564;2023-11-21T05:35:41;5.81;79.84
80132;SHT30;69442;51.442;10.564;2023-11-21T05:38:06;5.87;81.71
80132;SHT30;69442;51.442;10.564;2023-11-21T05:40:32;5.83;80.97
80132;SHT30;69442;51.442;10.564;2023-11-21T05:42:58;5.84;82.66
80132;SHT30;69442;51.442;10.564;2023-11-21T05:45:23;5.86;84.19
80132;SHT30;69442;51.442;10.564;2023-11-21T05:47:49;5.84;81.82
80132;SHT30;69442;51.442;10.564;2023-11-21T05:50:15;5.90;83.37
80132;SHT30;69442;51.442;10.564;2023-11-21T05:52:45;5.86;82.47
80132;SHT30;69442;51.442;10.564;2023-11-21T05:55:10;5.89;81.27
80132;SHT30;69442;51.442;10.564;2023-11-21T05:57:40;5.91;81.17
80132;SHT30;69442;51.442;10.564;2023-11-21T06:00:13;5.93;81.38
80132;SHT30;69442;51.442;10.564;2023-11-21T06:02:44;5.95;80.89
80132;SHT30;69442;51.442;10.564;2023-11-21T06:05:10;5.95;81.50
80132;SHT30;69442;51.442;10.564;2023-11-21T06:07:37;6.00;83.19
80132;SHT30;69442;51.442;10.564;2023-11-21T06:10:03;6.01;84.51
80132;SHT30;69442;51.442;10.564;2023-11-21T06:12:32;5.98;84.36
80132;SHT30;69442;51.442;10.564;2023-11-21T06:15:02;6.02;84.22
80132;SHT30;69442;51.442;10.564;2023-11-21T06:17:30;6.00;83.14
80132;SHT30;69442;51.442;10.564;2023-11-21T06:19:55;6.04;83.97
80132;SHT30;69442;51.442;10.564;2023-11-21T06:22:20;6.05;86.19
80132;SHT30;69442;51.442;10.564;2023-11-21T06:24:46;6.05;83.85
80132;SHT30;69442;51.442;10.564;2023-11-21T06:27:12;6.10;84.21
80132;SHT30;69442;51.442;10.564;2023-11-21T06:29:37;6.11;86.86
80132;SHT30;69442;51.442;10.564;2023-11-21T06:32:03;6.19;88.63
80132;SHT30;69442;51.442;10.564;2023-11-21T06:34:30;6.24;89.41
80132;SHT30;69442;51.442;10.564;2023-11-21T06:36:56;6.15;85.92
80132;SHT30;69442;51.442;10.564;2023-11-21T06:39:21;6.18;84.54
80132;SHT30;69442;51.442;10.564;2023-11-21T06:41:49;6.21;84.03
80132;SHT30;69442;51.442;10.564;2023-11-21T06:44:14;6.24;84.34
80132;SHT30;69442;51.442;10.564;2023-11-21T06:46:40;6.28;84.81
80132;SHT30;69442;51.442;10.564;2023-11-21T06:49:08;6.26;83.02
80132;SHT30;69442;51.442;10.564;2023-11-21T06:51:33;6.28;83.00
80132;SHT30;69442;51.442;10.564;2023-11-21T06:53:58;6.32;85.18
80132;SHT30;69442;51.442;10.564;2023-11-21T06:56:24;6.28;85.99
80132;SHT30;69442;51.442;10.564;2023-11-21T06:58:49;6.32;87.92
80132;SHT30;69442;51.442;10.564;2023-11-21T07:01:19;6.26;88.39
80132;SHT30;69442;51.442;10.564;2023-11-21T07:03:44;6.26;88.32
80132;SHT30;69442;51.442;10.564;2023-11-21T07:06:10;6.33;88.09
80132;SHT30;69442;51.442;10.564;2023-11-21T07:08:36;6.32;87.24
80132;SHT30;69442;51.442;10.564;2023-11-21T07:11:02;6.30;86.33
80132;SHT30;69442;51.442;10.564;2023-11-21T07:13:28;6.35;84.08
80132;SHT30;69442;51.442;10.564;2023-11-21T07:15:54;6.43;85.58
80132;SHT30;69442;51.442;10.564;2023-11-21T07:18:19;6.42;85.17
80132;SHT30;69442;51.442;10.564;2023-11-21T07:20:45;6.45;84.48
80132;SHT30;69442;51.442;10.564;2023-11-21T07:23:10;6.43;85.95
80132;SHT30;69442;51.442;10.564;2023-11-21T07:25:35;6.45;86.08
80132;SHT30;69442;51.442;10.564;2023-11-21T07:28:01;6.45;85.25
80132;SHT30;69442;51.442;10.564;2023-11-21T07:30:26;6.45;86.85
80132;SHT30;69442;51.442;10.564;2023-11-21T07:32:52;6.45;84.24
80132;SHT30;69442;51.442;10.564;2023-11-21T07:35:18;6.49;84.73
80132;SHT30;69442;51.442;10.564;2023-11-21T07:37:44;6.52;86.73
80132;SHT30;69442;51.442;10.564;2023-11-21T07:40:09;6.47;85.04
80132;SHT30;69442;51.442;10.564;2023-11-21T07:42:37;6.49;84.97
80132;SHT30;69442;51.442;10.564;2023-11-21T07:45:03;6.47;84.66
80132;SHT30;69442;51.442;10.564;2023-11-21T07:47:29;6.53;85.55
80132;SHT30;69442;51.442;10.564;2023-11-21T07:49:54;6.52;85.89
80132;SHT30;69442;51.442;10.564;2023-11-21T07:52:22;6.53;84.04
80132;SHT30;69442;51.442;10.564;2023-11-21T07:54:47;6.54;85.84
80132;SHT30;69442;51.442;10.564;2023-11-21T07:57:12;6.54;85.25
80132;SHT30;69442;51.442;10.564;2023-11-21T07:59:39;6.57;85.46
80132;SHT30;69442;51.442;10.564;2023-11-21T08:02:06;6.56;87.10
80132;SHT30;69442;51.442;10.564;2023-11-21T08:04:31;6.58;85.73
80132;SHT30;69442;51.442;10.564;2023-11-21T08:06:57;6.63;85.75
80132;SHT30;69442;51.442;10.564;2023-11-21T08:09:22;6.72;86.43
80132;SHT30;69442;51.442;10.564;2023-11-21T08:11:49;6.69;84.82
80132;SHT30;69442;51.442;10.564;2023-11-21T08:14:15;6.69;85.40
80132;SHT30;69442;51.442;10.564;2023-11-21T08:16:40;6.72;86.78
80132;SHT30;69442;51.442;10.564;2023-11-21T08:19:06;6.77;87.13
80132;SHT30;69442;51.442;10.564;2023-11-21T08:21:33;6.76;86.90
80132;SHT30;69442;51.442;10.564;2023-11-21T08:23:59;6.80;87.93
80132;SHT30;69442;51.442;10.564;2023-11-21T08:26:25;6.83;87.37
80132;SHT30;69442;51.442;10.564;2023-11-21T08:28:50;6.85;87.01
80132;SHT30;69442;51.442;10.564;2023-11-21T08:31:23;6.84;86.43
80132;SHT30;69442;51.442;10.564;2023-11-21T08:33:49;6.85;84.99
80132;SHT30;69442;51.442;10.564;2023-11-21T08:36:14;6.92;86.32
80132;SHT30;69442;51.442;10.564;2023-11-21T08:38:40;6.98;87.58
80132;SHT30;69442;51.442;10.564;2023-11-21T08:41:07;6.95;86.58
80132;SHT30;69442;51.442;10.564;2023-11-21T08:43:36;6.97;86.21
80132;SHT30;69442;51.442;10.564;2023-11-21T08:46:07;7.01;85.04
80132;SHT30;69442;51.442;10.564;2023-11-21T08:48:35;7.08;86.62
80132;SHT30;69442;51.442;10.564;2023-11-21T08:51:01;7.09;87.22
80132;SHT30;69442;51.442;10.564;2023-11-21T08:53:26;7.11;85.76
80132;SHT30;69442;51.442;10.564;2023-11-21T08:55:52;7.14;86.77
80132;SHT30;69442;51.442;10.564;2023-11-21T08:58:19;7.15;84.80
80132;SHT30;69442;51.442;10.564;2023-11-21T09:00:44;7.18;85.65
80132;SHT30;69442;51.442;10.564;2023-11-21T09:03:11;7.22;87.68
80132;SHT30;69442;51.442;10.564;2023-11-21T09:05:40;7.22;85.83
80132;SHT30;69442;51.442;10.564;2023-11-21T09:08:05;7.26;84.06
80132;SHT30;69442;51.442;10.564;2023-11-21T09:10:33;7.26;83.77
80132;SHT30;69442;51.442;10.564;2023-11-21T09:13:01;7.30;84.96
80132;SHT30;69442;51.442;10.564;2023-11-21T09:15:27;7.33;85.77
80132;SHT30;69442;51.442;10.564;2023-11-21T09:17:53;7.33;84.19
80132;SHT30;69442;51.442;10.564;2023-11-21T09:20:18;7.33;85.34
80132;SHT30;69442;51.442;10.564;2023-11-21T09:22:46;7.37;86.68
80132;SHT30;69442;51.442;10.564;2023-11-21T09:25:12;7.35;84.27
80132;SHT30;69442;51.442;10.564;2023-11-21T09:27:37;7.40;86.43
80132;SHT30;69442;51.442;10.564;2023-11-21T09:30:03;7.42;87.14
80132;SHT30;69442;51.442;10.564;2023-11-21T09:32:31;7.40;86.77
80132;SHT30;69442;51.442;10.564;2023-11-21T09:34:56;7.37;84.83
80132;SHT30;69442;51.442;10.564;2023-11-21T09:37:23;7.47;87.04
80132;SHT30;69442;51.442;10.564;2023-11-21T09:39:49;7.47;86.05
80132;SHT30;69442;51.442;10.564;2023-11-21T09:42:34;7.50;86.47
80132;SHT30;69442;51.442;10.564;2023-11-21T09:48:02;7.52;85.26
80132;SHT30;69442;51.442;10.564;2023-11-21T09:50:28;7.52;84.42
80132;SHT30;69442;51.442;10.564;2023-11-21T09:55:44;7.53;83.98
80132;SHT30;69442;51.442;10.564;2023-11-21T09:58:10;7.57;85.11
80132;SHT30;69442;51.442;10.564;2023-11-21T10:00:43;7.57;85.05
80132;SHT30;69442;51.442;10.564;2023-11-21T10:03:09;7.61;86.30
80132;SHT30;69442;51.442;10.564;2023-11-21T10:05:38;7.60;85.63
80132;SHT30;69442;51.442;10.564;2023-11-21T10:08:07;7.56;84.71
80132;SHT30;69442;51.442;10.564;2023-11-21T10:10:33;7.64;86.66
80132;SHT30;69442;51.442;10.564;2023-11-21T10:13:02;7.60;86.52
80132;SHT30;69442;51.442;10.564;2023-11-21T10:15:29;7.63;86.04
80132;SHT30;69442;51.442;10.564;2023-11-21T10:17:55;7.64;86.80
80132;SHT30;69442;51.442;10.564;2023-11-21T10:20:23;7.66;85.39
80132;SHT30;69442;51.442;10.564;2023-11-21T10:22:49;7.66;84.99
80132;SHT30;69442;51.442;10.564;2023-11-21T10:25:15;7.71;86.14
80132;SHT30;69442;51.442;10.564;2023-11-21T10:27:41;7.71;86.50
80132;SHT30;69442;51.442;10.564;2023-11-21T10:30:07;7.74;85.70
80132;SHT30;69442;51.442;10.564;2023-11-21T10:32:33;7.75;86.36
80132;SHT30;69442;51.442;10.564;2023-11-21T10:34:59;7.77;85.26
80132;SHT30;69442;51.442;10.564;2023-11-21T10:37:32;7.78;84.62
80132;SHT30;69442;51.442;10.564;2023-11-21T10:40:00;7.81;85.13
80132;SHT30;69442;51.442;10.564;2023-11-21T10:42:26;7.84;85.18
80132;SHT30;69442;51.442;10.564;2023-11-21T10:44:53;7.85;84.51
80132;SHT30;69442;51.442;10.564;2023-11-21T10:47:19;7.89;84.75
80132;SHT30;69442;51.442;10.564;2023-11-21T10:49:45;7.89;85.76
80132;SHT30;69442;51.442;10.564;2023-11-21T10:52:13;7.89;84.64
80132;SHT30;69442;51.442;10.564;2023-11-21T10:54:43;7.91;84.81
80132;SHT30;69442;51.442;10.564;2023-11-21T10:57:08;7.91;84.95
80132;SHT30;69442;51.442;10.564;2023-11-21T10:59:35;7.92;84.68
80132;SHT30;69442;51.442;10.564;2023-11-21T11:02:02;7.95;85.15
80132;SHT30;69442;51.442;10.564;2023-11-21T11:04:30;7.97;84.41
80132;SHT30;69442;51.442;10.564;2023-11-21T11:07:02;7.95;83.71
80132;SHT30;69442;51.442;10.564;2023-11-21T11:09:30;8.02;85.27
80132;SHT30;69442;51.442;10.564;2023-11-21T11:11:58;8.01;85.29
80132;SHT30;69442;51.442;10.564;2023-11-21T11:14:24;8.01;85.45
80132;SHT30;69442;51.442;10.564;2023-11-21T11:16:53;8.02;85.41
80132;SHT30;69442;51.442;10.564;2023-11-21T11:19:20;8.01;85.55
80132;SHT30;69442;51.442;10.564;2023-11-21T11:33:11;7.98;85.00
80132;SHT30;69442;51.442;10.564;2023-11-21T11:38:21;7.98;85.50
80132;SHT30;69442;51.442;10.564;2023-11-21T11:40:47;7.97;84.84
80132;SHT30;69442;51.442;10.564;2023-11-21T11:43:27;7.98;85.45
80132;SHT30;69442;51.442;10.564;2023-11-21T11:45:56;7.95;84.63
80132;SHT30;69442;51.442;10.564;2023-11-21T11:48:24;7.99;85.06
80132;SHT30;69442;51.442;10.564;2023-11-21T11:51:11;7.99;85.72
80132;SHT30;69442;51.442;10.564;2023-11-21T11:53:40;7.98;85.19
80132;SHT30;69442;51.442;10.564;2023-11-21T11:56:23;7.97;85.70
80132;SHT30;69442;51.442;10.564;2023-11-21T11:58:51;7.97;85.66
80132;SHT30;69442;51.442;10.564;2023-11-21T12:01:19;7.94;85.34
80132;SHT30;69442;51.442;10.564;2023-11-21T12:03:44;7.88;85.67
80132;SHT30;69442;51.442;10.564;2023-11-21T12:06:10;7.88;85.50
80132;SHT30;69442;51.442;10.564;2023-11-21T12:08:37;7.91;85.49
80132;SHT30;69442;51.442;10.564;2023-11-21T12:11:03;7.92;85.62
80132;SHT30;69442;51.442;10.564;2023-11-21T12:13:29;7.89;85.49
80132;SHT30;69442;51.442;10.564;2023-11-21T12:15:55;7.89;85.16
80132;SHT30;69442;51.442;10.564;2023-11-21T12:18:21;7.84;84.17
80132;SHT30;69442;51.442;10.564;2023-11-21T12:20:46;7.81;84.22
80132;SHT30;69442;51.442;10.564;2023-11-21T12:23:14;7.77;83.79
80132;SHT30;69442;51.442;10.564;2023-11-21T12:25:42;7.75;83.96
80132;SHT30;69442;51.442;10.564;2023-11-21T12:28:08;7.73;83.92
80132;SHT30;69442;51.442;10.564;2023-11-21T12:30:34;7.69;83.83
80132;SHT30;69442;51.442;10.564;2023-11-21T12:33:06;7.67;83.18
80132;SHT30;69442;51.442;10.564;2023-11-21T12:35:34;7.67;82.40
80132;SHT30;69442;51.442;10.564;2023-11-21T12:38:01;7.64;82.08
80132;SHT30;69442;51.442;10.564;2023-11-21T12:40:34;7.60;81.32
80132;SHT30;69442;51.442;10.564;2023-11-21T12:43:00;7.56;81.28
80132;SHT30;69442;51.442;10.564;2023-11-21T12:45:27;7.49;81.21
80132;SHT30;69442;51.442;10.564;2023-11-21T12:48:03;7.46;81.30
80132;SHT30;69442;51.442;10.564;2023-11-21T12:50:33;7.46;80.84
80132;SHT30;69442;51.442;10.564;2023-11-21T12:53:05;7.44;80.44
80132;SHT30;69442;51.442;10.564;2023-11-21T12:55:34;7.40;79.67
80132;SHT30;69442;51.442;10.564;2023-11-21T12:58:04;7.37;79.42
80132;SHT30;69442;51.442;10.564;2023-11-21T13:00:41;7.35;79.33
80132;SHT30;69442;51.442;10.564;2023-11-21T13:03:09;7.27;79.18
80132;SHT30;69442;51.442;10.564;2023-11-21T13:05:38;7.29;79.18
80132;SHT30;69442;51.442;10.564;2023-11-21T13:08:06;7.29;78.99
80132;SHT30;69442;51.442;10.564;2023-11-21T13:10:40;7.23;78.85
80132;SHT30;69442;51.442;10.564;2023-11-21T13:13:08;7.32;79.51
80132;SHT30;69442;51.442;10.564;2023-11-21T13:15:34;7.30;79.15
80132;SHT30;69442;51.442;10.564;2023-11-21T13:18:03;7.30;78.92
80132;SHT30;69442;51.442;10.564;2023-11-21T13:20:29;7.30;78.62
80132;SHT30;69442;51.442;10.564;2023-11-21T13:22:58;7.25;78.07
80132;SHT30;69442;51.442;10.564;2023-11-21T13:25:26;7.19;78.67
80132;SHT30;69442;51.442;10.564;2023-11-21T13:27:57;7.25;78.76
80132;SHT30;69442;51.442;10.564;2023-11-21T13:30:23;7.29;79.26
80132;SHT30;69442;51.442;10.564;2023-11-21T13:32:53;7.29;78.61
80132;SHT30;69442;51.442;10.564;2023-11-21T13:35:23;7.30;78.58
80132;SHT30;69442;51.442;10.564;2023-11-21T13:38:10;7.22;78.65
80132;SHT30;69442;51.442;10.564;2023-11-21T13:40:37;7.23;78.57
80132;SHT30;69442;51.442;10.564;2023-11-21T13:43:10;7.27;78.50
80132;SHT30;69442;51.442;10.564;2023-11-21T13:45:39;7.23;77.36
80132;SHT30;69442;51.442;10.564;2023-11-21T13:48:06;7.14;77.71
80132;SHT30;69442;51.442;10.564;2023-11-21T13:50:36;7.16;78.30
80132;SHT30;69442;51.442;10.564;2023-11-21T13:53:02;7.22;77.55
80132;SHT30;69442;51.442;10.564;2023-11-21T13:55:42;7.16;76.67
80132;SHT30;69442;51.442;10.564;2023-11-21T13:58:07;7.20;77.54
80132;SHT30;69442;51.442;10.564;2023-11-21T14:00:37;7.19;76.44
80132;SHT30;69442;51.442;10.564;2023-11-21T14:03:25;7.19;77.23
80132;SHT30;69442;51.442;10.564;2023-11-21T14:06:03;7.15;76.57
80132;SHT30;69442;51.442;10.564;2023-11-21T14:08:36;7.12;76.51
80132;SHT30;69442;51.442;10.564;2023-11-21T14:11:02;7.08;76.91
80132;SHT30;69442;51.442;10.564;2023-11-21T14:13:29;7.04;76.92
80132;SHT30;69442;51.442;10.564;2023-11-21T14:15:55;7.08;77.05
80132;SHT30;69442;51.442;10.564;2023-11-21T14:18:24;7.12;77.70
80132;SHT30;69442;51.442;10.564;2023-11-21T14:20:59;7.14;77.00
80132;SHT30;69442;51.442;10.564;2023-11-21T14:23:25;7.08;76.83
80132;SHT30;69442;51.442;10.564;2023-11-21T14:25:50;7.12;76.63
80132;SHT30;69442;51.442;10.564;2023-11-21T14:28:17;7.05;76.16
80132;SHT30;69442;51.442;10.564;2023-11-21T14:30:42;7.09;76.54
80132;SHT30;69442;51.442;10.564;2023-11-21T14:33:08;7.02;76.01
80132;SHT30;69442;51.442;10.564;2023-11-21T14:35:36;6.99;76.15
80132;SHT30;69442;51.442;10.564;2023-11-21T14:38:02;6.97;76.01
80132;SHT30;69442;51.442;10.564;2023-11-21T14:40:33;6.99;76.79
80132;SHT30;69442;51.442;10.564;2023-11-21T14:43:04;6.97;76.19
80132;SHT30;69442;51.442;10.564;2023-11-21T14:45:33;6.91;75.95
80132;SHT30;69442;51.442;10.564;2023-11-21T14:47:59;6.90;76.01
80132;SHT30;69442;51.442;10.564;2023-11-21T14:50:35;6.91;76.00
80132;SHT30;69442;51.442;10.564;2023-11-21T14:53:12;6.90;75.80
80132;SHT30;69442;51.442;10.564;2023-11-21T14:55:40;6.88;76.50
80132;SHT30;69442;51.442;10.564;2023-11-21T14:58:14;6.85;76.60
80132;SHT30;69442;51.442;10.564;2023-11-21T15:00:45;6.84;76.19
80132;SHT30;69442;51.442;10.564;2023-11-21T15:03:11;6.81;76.55
80132;SHT30;69442;51.442;10.564;2023-11-21T15:06:00;6.73;76.28
80132;SHT30;69442;51.442;10.564;2023-11-21T15:08:51;6.72;76.56
80132;SHT30;69442;51.442;10.564;2023-11-21T15:11:46;6.66;76.86
80132;SHT30;69442;51.442;10.564;2023-11-21T15:14:12;6.60;76.91
80132;SHT30;69442;51.442;10.564;2023-11-21T15:16:41;6.62;77.05
80132;SHT30;69442;51.442;10.564;2023-11-21T15:19:12;6.64;76.89
80132;SHT30;69442;51.442;10.564;2023-11-21T15:21:43;6.60;76.83
80132;SHT30;69442;51.442;10.564;2023-11-21T15:24:09;6.58;76.96
80132;SHT30;69442;51.442;10.564;2023-11-21T15:26:36;6.54;77.15
80132;SHT30;69442;51.442;10.564;2023-11-21T15:29:01;6.49;77.18
80132;SHT30;69442;51.442;10.564;2023-11-21T15:31:26;6.47;77.45
80132;SHT30;69442;51.442;10.564;2023-11-21T15:33:52;6.43;77.50
80132;SHT30;69442;51.442;10.564;2023-11-21T15:36:19;6.39;77.42
80132;SHT30;69442;51.442;10.564;2023-11-21T15:38:44;6.36;77.62
80132;SHT30;69442;51.442;10.564;2023-11-21T15:41:10;6.35;77.74
80132;SHT30;69442;51.442;10.564;2023-11-21T15:43:36;6.40;77.77
80132;SHT30;69442;51.442;10.564;2023-11-21T15:46:02;6.35;76.48
80132;SHT30;69442;51.442;10.564;2023-11-21T15:48:33;6.33;76.16
80132;SHT30;69442;51.442;10.564;2023-11-21T15:50:59;6.35;74.84